sensor_id;sensor_type;location;lat;lon;timestamp;temperature;humidity
10411;DHT22;5251;52.112;8.606;2023-07-30T00:01:12;19.20;99.90
10411;DHT22;5251;52.112;8.606;2023-07-30T00:03:38;19.10;99.90
10411;DHT22;5251;52.112;8.606;2023-07-30T00:06:03;19.20;99.90
10411;DHT22;5251;52.112;8.606;2023-07-30T00:08:29;19.10;99.90
10411;DHT22;5251;52.112;8.606;2023-07-30T00:10:57;19.10;99.90
10411;DHT22;5251;52.112;8.606;2023-07-30T00:13:23;19.10;99.90
10411;DHT22;5251;52.112;8.606;2023-07-30T00:15:48;19.10;99.90
10411;DHT22;5251;52.112;8.606;2023-07-30T00:18:14;19.00;99.90
10411;DHT22;5251;52.112;8.606;2023-07-30T00:20:40;19.00;99.90
10411;DHT22;5251;52.112;8.606;2023-07-30T00:23:05;18.90;99.90
10411;DHT22;5251;52.112;8.606;2023-07-30T00:25:31;18.90;99.90
10411;DHT22;5251;52.112;8.606;2023-07-30T00:27:57;18.90;99.90
10411;DHT22;5251;52.112;8.606;2023-07-30T00:30:22;18.80;99.90
10411;DHT22;5251;52.112;8.606;2023-07-30T00:32:48;18.80;99.90
10411;DHT22;5251;52.112;8.606;2023-07-30T00:35:13;18.80;99.90
10411;DHT22;5251;52.112;8.606;2023-07-30T00:37:39;18.70;99.90
10411;DHT22;5251;52.112;8.606;2023-07-30T00:40:05;18.70;99.90
10411;DHT22;5251;52.112;8.606;2023-07-30T00:42:31;18.60;99.90
10411;DHT22;5251;52.112;8.606;2023-07-30T00:44:57;18.60;99.90
10411;DHT22;5251;52.112;8.606;2023-07-30T00:47:22;18.50;99.90
10411;DHT22;5251;52.112;8.606;2023-07-30T00:49:49;18.50;99.90
10411;DHT22;5251;52.112;8.606;2023-07-30T00:52:19;18.50;99.90
10411;DHT22;5251;52.112;8.606;2023-07-30T00:54:47;18.40;99.90
10411;DHT22;5251;52.112;8.606;2023-07-30T00:57:14;18.40;99.90
10411;DHT22;5251;52.112;8.606;2023-07-30T00:59:40;18.40;99.90
10411;DHT22;5251;52.112;8.606;2023-07-30T01:02:06;18.40;99.90
10411;DHT22;5251;52.112;8.606;2023-07-30T01:04:32;18.30;99.90
10411;DHT22;5251;52.112;8.606;2023-07-30T01:06:58;18.30;99.90
10411;DHT22;5251;52.112;8.606;2023-07-30T01:09:24;18.30;99.90
10411;DHT22;5251;52.112;8.606;2023-07-30T01:11:50;18.30;99.90
10411;DHT22;5251;52.112;8.606;2023-07-30T01:14:16;18.20;99.90
10411;DHT22;5251;52.112;8.606;2023-07-30T01:16:44;18.20;99.90
10411;DHT22;5251;52.112;8.606;2023-07-30T01:19:10;18.20;99.90
10411;DHT22;5251;52.112;8.606;2023-07-30T01:21:36;18.10;99.90
10411;DHT22;5251;52.112;8.606;2023-07-30T01:24:03;18.10;99.90
10411;DHT22;5251;52.112;8.606;2023-07-30T01:26:34;18.10;99.90
10411;DHT22;5251;52.112;8.606;2023-07-30T01:29:03;18.10;99.90
10411;DHT22;5251;52.112;8.606;2023-07-30T01:31:30;18.00;99.90
10411;DHT22;5251;52.112;8.606;2023-07-30T01:33:59;18.00;99.90
10411;DHT22;5251;52.112;8.606;2023-07-30T01:36:28;18.00;99.90
10411;DHT22;5251;52.112;8.606;2023-07-30T01:38:56;17.90;99.90
10411;DHT22;5251;52.112;8.606;2023-07-30T01:41:22;17.90;99.90
10411;DHT22;5251;52.112;8.606;2023-07-30T01:43:49;17.90;99.90
10411;DHT22;5251;52.112;8.606;2023-07-30T01:46:15;17.90;99.90
10411;DHT22;5251;52.112;8.606;2023-07-30T01:48:41;17.80;99.90
10411;DHT22;5251;52.112;8.606;2023-07-30T01:51:06;17.80;99.90
10411;DHT22;5251;52.112;8.606;2023-07-30T01:53:32;17.80;99.90
10411;DHT22;5251;52.112;8.606;2023-07-30T01:55:58;17.80;99.90
10411;DHT22;5251;52.112;8.606;2023-07-30T01:58:23;17.70;99.90
10411;DHT22;5251;52.112;8.606;2023-07-30T02:00:49;17.70;99.90
10411;DHT22;5251;52.112;8.606;2023-07-30T02:03:14;17.70;99.90
10411;DHT22;5251;52.112;8.606;2023-07-30T02:05:40;17.60;99.90
10411;DHT22;5251;52.112;8.606;2023-07-30T02:08:05;17.60;99.90
10411;DHT22;5251;52.112;8.606;2023-07-30T02:10:31;17.60;99.90
10411;DHT22;5251;52.112;8.606;2023-07-30T02:12:57;17.60;99.90
10411;DHT22;5251;52.112;8.606;2023-07-30T02:15:22;17.60;99.90
10411;DHT22;5251;52.112;8.606;2023-07-30T02:17:48;17.60;99.90
10411;DHT22;5251;52.112;8.606;2023-07-30T02:20:14;17.60;99.90
10411;DHT22;5251;52.112;8.606;2023-07-30T02:22:39;17.60;99.90
10411;DHT22;5251;52.112;8.606;2023-07-30T02:25:05;17.50;99.90
10411;DHT22;5251;52.112;8.606;2023-07-30T02:27:31;17.50;99.90
10411;DHT22;5251;52.112;8.606;2023-07-30T02:29:56;17.50;99.90
10411;DHT22;5251;52.112;8.606;2023-07-30T02:32:22;17.50;99.90
10411;DHT22;5251;52.112;8.606;2023-07-30T02:34:47;17.50;99.90
10411;DHT22;5251;52.112;8.606;2023-07-30T02:37:13;17.50;99.90
10411;DHT22;5251;52.112;8.606;2023-07-30T02:39:39;17.50;99.90
10411;DHT22;5251;52.112;8.606;2023-07-30T02:42:05;17.50;99.90
10411;DHT22;5251;52.112;8.606;2023-07-30T02:44:30;17.50;99.90
10411;DHT22;5251;52.112;8.606;2023-07-30T02:46:56;17.40;99.90
10411;DHT22;5251;52.112;8.606;2023-07-30T02:49:21;17.50;99.90
10411;DHT22;5251;52.112;8.606;2023-07-30T02:51:47;17.50;99.90
10411;DHT22;5251;52.112;8.606;2023-07-30T02:54:14;17.50;99.90
10411;DHT22;5251;52.112;8.606;2023-07-30T02:56:41;17.50;99.90
10411;DHT22;5251;52.112;8.606;2023-07-30T02:59:07;17.50;99.90
10411;DHT22;5251;52.112;8.606;2023-07-30T03:01:32;17.50;99.90
10411;DHT22;5251;52.112;8.606;2023-07-30T03:03:58;17.50;99.90
10411;DHT22;5251;52.112;8.606;2023-07-30T03:06:23;17.50;99.90
10411;DHT22;5251;52.112;8.606;2023-07-30T03:08:49;17.50;99.90
10411;DHT22;5251;52.112;8.606;2023-07-30T03:11:15;17.50;99.90
10411;DHT22;5251;52.112;8.606;2023-07-30T03:13:40;17.50;99.90
10411;DHT22;5251;52.112;8.606;2023-07-30T03:16:06;17.50;99.90
10411;DHT22;5251;52.112;8.606;2023-07-30T03:18:31;17.60;99.90
10411;DHT22;5251;52.112;8.606;2023-07-30T03:21:00;17.60;99.90
10411;DHT22;5251;52.112;8.606;2023-07-30T03:23:27;17.60;99.90
10411;DHT22;5251;52.112;8.606;2023-07-30T03:25:53;17.60;99.90
10411;DHT22;5251;52.112;8.606;2023-07-30T03:28:18;17.60;99.90
10411;DHT22;5251;52.112;8.606;2023-07-30T03:30:44;17.60;99.90
10411;DHT22;5251;52.112;8.606;2023-07-30T03:33:09;17.60;99.90
10411;DHT22;5251;52.112;8.606;2023-07-30T03:35:35;17.60;99.90
10411;DHT22;5251;52.112;8.606;2023-07-30T03:38:01;17.60;99.90
10411;DHT22;5251;52.112;8.606;2023-07-30T03:40:26;17.60;99.90
10411;DHT22;5251;52.112;8.606;2023-07-30T03:42:52;17.60;99.90
10411;DHT22;5251;52.112;8.606;2023-07-30T03:45:17;17.60;99.90
10411;DHT22;5251;52.112;8.606;2023-07-30T03:47:43;17.60;99.90
10411;DHT22;5251;52.112;8.606;2023-07-30T03:50:09;17.60;99.90
10411;DHT22;5251;52.112;8.606;2023-07-30T03:52:34;17.60;99.90
10411;DHT22;5251;52.112;8.606;2023-07-30T03:55:00;17.60;99.90
10411;DHT22;5251;52.112;8.606;2023-07-30T03:57:26;17.60;99.90
10411;DHT22;5251;52.112;8.606;2023-07-30T03:59:51;17.60;99.90
10411;DHT22;5251;52.112;8.606;2023-07-30T04:02:17;17.60;99.90
10411;DHT22;5251;52.112;8.606;2023-07-30T04:04:43;17.60;99.90
10411;DHT22;5251;52.112;8.606;2023-07-30T04:07:13;17.60;99.90
10411;DHT22;5251;52.112;8.606;2023-07-30T04:09:39;17.60;99.90
10411;DHT22;5251;52.112;8.606;2023-07-30T04:12:05;17.50;99.90
10411;DHT22;5251;52.112;8.606;2023-07-30T04:14:30;17.50;99.90
10411;DHT22;5251;52.112;8.606;2023-07-30T04:16:56;17.50;99.90
10411;DHT22;5251;52.112;8.606;2023-07-30T04:19:22;17.50;99.90
10411;DHT22;5251;52.112;8.606;2023-07-30T04:21:47;17.50;99.90
10411;DHT22;5251;52.112;8.606;2023-07-30T04:24:13;17.40;99.90
10411;DHT22;5251;52.112;8.606;2023-07-30T04:26:38;17.50;99.90
10411;DHT22;5251;52.112;8.606;2023-07-30T04:29:04;17.40;99.90
10411;DHT22;5251;52.112;8.606;2023-07-30T04:31:30;17.50;99.90
10411;DHT22;5251;52.112;8.606;2023-07-30T04:33:58;17.50;99.90
10411;DHT22;5251;52.112;8.606;2023-07-30T04:36:23;17.50;99.90
10411;DHT22;5251;52.112;8.606;2023-07-30T04:38:49;17.40;99.90
10411;DHT22;5251;52.112;8.606;2023-07-30T04:41:14;17.50;99.90
10411;DHT22;5251;52.112;8.606;2023-07-30T04:43:40;17.50;99.90
10411;DHT22;5251;52.112;8.606;2023-07-30T04:46:05;17.50;99.90
10411;DHT22;5251;52.112;8.606;2023-07-30T04:48:31;17.50;99.90
10411;DHT22;5251;52.112;8.606;2023-07-30T04:50:56;17.50;99.90
10411;DHT22;5251;52.112;8.606;2023-07-30T04:53:22;17.50;99.90
10411;DHT22;5251;52.112;8.606;2023-07-30T04:55:47;17.60;99.90
10411;DHT22;5251;52.112;8.606;2023-07-30T04:58:13;17.60;99.90
10411;DHT22;5251;52.112;8.606;2023-07-30T05:00:39;17.60;99.90
10411;DHT22;5251;52.112;8.606;2023-07-30T05:03:04;17.70;99.90
10411;DHT22;5251;52.112;8.606;2023-07-30T05:05:30;17.70;99.90
10411;DHT22;5251;52.112;8.606;2023-07-30T05:07:55;17.80;99.90
10411;DHT22;5251;52.112;8.606;2023-07-30T05:10:21;17.90;99.90
10411;DHT22;5251;52.112;8.606;2023-07-30T05:12:47;17.90;99.90
10411;DHT22;5251;52.112;8.606;2023-07-30T05:15:12;18.10;99.90
10411;DHT22;5251;52.112;8.606;2023-07-30T05:17:38;18.20;99.90
10411;DHT22;5251;52.112;8.606;2023-07-30T05:20:04;18.40;99.90
10411;DHT22;5251;52.112;8.606;2023-07-30T05:22:30;18.60;99.90
10411;DHT22;5251;52.112;8.606;2023-07-30T05:24:55;18.80;99.90
10411;DHT22;5251;52.112;8.606;2023-07-30T05:27:22;18.90;99.90
10411;DHT22;5251;52.112;8.606;2023-07-30T05:29:47;19.00;99.90
10411;DHT22;5251;52.112;8.606;2023-07-30T05:32:13;19.10;99.90
10411;DHT22;5251;52.112;8.606;2023-07-30T05:34:39;19.20;99.90
10411;DHT22;5251;52.112;8.606;2023-07-30T05:37:05;19.20;99.90
10411;DHT22;5251;52.112;8.606;2023-07-30T05:39:31;19.30;99.90
10411;DHT22;5251;52.112;8.606;2023-07-30T05:41:56;19.30;99.90
10411;DHT22;5251;52.112;8.606;2023-07-30T05:44:22;19.30;99.90
10411;DHT22;5251;52.112;8.606;2023-07-30T05:46:47;19.40;99.90
10411;DHT22;5251;52.112;8.606;2023-07-30T05:49:13;19.30;99.90
10411;DHT22;5251;52.112;8.606;2023-07-30T05:51:40;19.40;99.90
10411;DHT22;5251;52.112;8.606;2023-07-30T05:54:05;19.40;99.90
10411;DHT22;5251;52.112;8.606;2023-07-30T05:56:31;19.40;99.90
10411;DHT22;5251;52.112;8.606;2023-07-30T05:58:56;19.50;99.90
10411;DHT22;5251;52.112;8.606;2023-07-30T06:01:22;19.60;99.90
10411;DHT22;5251;52.112;8.606;2023-07-30T06:03:48;19.70;99.90
10411;DHT22;5251;52.112;8.606;2023-07-30T06:06:14;19.80;99.90
10411;DHT22;5251;52.112;8.606;2023-07-30T06:08:40;19.90;99.90
10411;DHT22;5251;52.112;8.606;2023-07-30T06:11:05;20.00;99.90
10411;DHT22;5251;52.112;8.606;2023-07-30T06:13:31;20.10;99.90
10411;DHT22;5251;52.112;8.606;2023-07-30T06:15:56;20.20;99.90
10411;DHT22;5251;52.112;8.606;2023-07-30T06:18:22;20.20;99.90
10411;DHT22;5251;52.112;8.606;2023-07-30T06:20:47;20.30;99.90
10411;DHT22;5251;52.112;8.606;2023-07-30T06:23:13;20.40;99.90
10411;DHT22;5251;52.112;8.606;2023-07-30T06:25:39;20.50;99.90
10411;DHT22;5251;52.112;8.606;2023-07-30T06:28:05;20.60;99.90
10411;DHT22;5251;52.112;8.606;2023-07-30T06:30:32;20.70;99.90
10411;DHT22;5251;52.112;8.606;2023-07-30T06:32:58;20.70;99.90
10411;DHT22;5251;52.112;8.606;2023-07-30T06:35:23;20.80;99.90
10411;DHT22;5251;52.112;8.606;2023-07-30T06:37:50;21.00;99.90
10411;DHT22;5251;52.112;8.606;2023-07-30T06:40:16;21.00;99.90
10411;DHT22;5251;52.112;8.606;2023-07-30T06:42:42;21.20;99.90
10411;DHT22;5251;52.112;8.606;2023-07-30T06:45:08;21.30;99.90
10411;DHT22;5251;52.112;8.606;2023-07-30T06:47:34;21.40;99.90
10411;DHT22;5251;52.112;8.606;2023-07-30T06:49:59;21.40;99.90
10411;DHT22;5251;52.112;8.606;2023-07-30T06:52:25;21.60;99.90
10411;DHT22;5251;52.112;8.606;2023-07-30T06:54:50;21.70;99.90
10411;DHT22;5251;52.112;8.606;2023-07-30T06:57:16;21.90;99.90
10411;DHT22;5251;52.112;8.606;2023-07-30T06:59:42;21.90;99.90
10411;DHT22;5251;52.112;8.606;2023-07-30T07:02:07;22.00;99.90
10411;DHT22;5251;52.112;8.606;2023-07-30T07:04:33;22.10;99.90
10411;DHT22;5251;52.112;8.606;2023-07-30T07:06:58;22.10;99.90
10411;DHT22;5251;52.112;8.606;2023-07-30T07:09:24;22.20;99.90
10411;DHT22;5251;52.112;8.606;2023-07-30T07:11:50;22.20;99.90
10411;DHT22;5251;52.112;8.606;2023-07-30T07:14:15;22.20;99.90
10411;DHT22;5251;52.112;8.606;2023-07-30T07:16:41;22.30;99.90
10411;DHT22;5251;52.112;8.606;2023-07-30T07:19:06;22.30;99.90
10411;DHT22;5251;52.112;8.606;2023-07-30T07:21:32;22.40;99.90
10411;DHT22;5251;52.112;8.606;2023-07-30T07:23:58;22.50;99.90
10411;DHT22;5251;52.112;8.606;2023-07-30T07:26:23;22.50;99.90
10411;DHT22;5251;52.112;8.606;2023-07-30T07:28:49;22.70;99.90
10411;DHT22;5251;52.112;8.606;2023-07-30T07:31:14;22.80;99.90
10411;DHT22;5251;52.112;8.606;2023-07-30T07:33:40;22.90;99.90
10411;DHT22;5251;52.112;8.606;2023-07-30T07:36:07;23.00;99.90
10411;DHT22;5251;52.112;8.606;2023-07-30T07:38:33;23.10;99.90
10411;DHT22;5251;52.112;8.606;2023-07-30T07:41:01;23.10;99.90
10411;DHT22;5251;52.112;8.606;2023-07-30T07:43:27;23.20;99.90
10411;DHT22;5251;52.112;8.606;2023-07-30T07:45:53;23.20;99.90
10411;DHT22;5251;52.112;8.606;2023-07-30T07:48:19;23.30;99.90
10411;DHT22;5251;52.112;8.606;2023-07-30T07:50:45;23.30;99.90
10411;DHT22;5251;52.112;8.606;2023-07-30T07:53:11;23.30;99.90
10411;DHT22;5251;52.112;8.606;2023-07-30T07:55:36;23.40;99.90
10411;DHT22;5251;52.112;8.606;2023-07-30T07:58:02;23.40;99.90
10411;DHT22;5251;52.112;8.606;2023-07-30T08:00:27;23.40;99.90
10411;DHT22;5251;52.112;8.606;2023-07-30T08:02:53;23.40;99.90
10411;DHT22;5251;52.112;8.606;2023-07-30T08:05:18;23.40;99.90
10411;DHT22;5251;52.112;8.606;2023-07-30T08:07:47;23.40;99.90
10411;DHT22;5251;52.112;8.606;2023-07-30T08:10:13;23.40;99.90
10411;DHT22;5251;52.112;8.606;2023-07-30T08:12:38;23.40;99.90
10411;DHT22;5251;52.112;8.606;2023-07-30T08:15:04;23.30;99.90
10411;DHT22;5251;52.112;8.606;2023-07-30T08:17:30;23.30;99.90
10411;DHT22;5251;52.112;8.606;2023-07-30T08:19:56;23.30;99.90
10411;DHT22;5251;52.112;8.606;2023-07-30T08:22:21;23.30;99.90
10411;DHT22;5251;52.112;8.606;2023-07-30T08:24:47;23.20;99.90
10411;DHT22;5251;52.112;8.606;2023-07-30T08:27:12;23.20;99.90
10411;DHT22;5251;52.112;8.606;2023-07-30T08:29:38;23.10;99.90
10411;DHT22;5251;52.112;8.606;2023-07-30T08:32:04;23.10;99.90
10411;DHT22;5251;52.112;8.606;2023-07-30T08:34:29;23.10;99.90
10411;DHT22;5251;52.112;8.606;2023-07-30T08:36:55;23.10;99.90
10411;DHT22;5251;52.112;8.606;2023-07-30T08:39:21;23.10;99.90
10411;DHT22;5251;52.112;8.606;2023-07-30T08:41:46;23.10;99.90
10411;DHT22;5251;52.112;8.606;2023-07-30T08:44:12;23.10;99.90
10411;DHT22;5251;52.112;8.606;2023-07-30T08:46:38;23.10;99.90
10411;DHT22;5251;52.112;8.606;2023-07-30T08:49:04;23.10;99.90
10411;DHT22;5251;52.112;8.606;2023-07-30T08:51:31;23.10;99.90
10411;DHT22;5251;52.112;8.606;2023-07-30T08:54:00;23.10;99.90
10411;DHT22;5251;52.112;8.606;2023-07-30T08:56:27;23.10;99.90
10411;DHT22;5251;52.112;8.606;2023-07-30T08:58:53;23.10;99.90
10411;DHT22;5251;52.112;8.606;2023-07-30T09:01:29;23.10;99.90
10411;DHT22;5251;52.112;8.606;2023-07-30T09:03:58;23.10;99.90
10411;DHT22;5251;52.112;8.606;2023-07-30T09:06:26;23.10;99.90
10411;DHT22;5251;52.112;8.606;2023-07-30T09:08:51;23.10;99.90
10411;DHT22;5251;52.112;8.606;2023-07-30T09:11:17;23.20;99.90
10411;DHT22;5251;52.112;8.606;2023-07-30T09:13:43;23.20;99.90
10411;DHT22;5251;52.112;8.606;2023-07-30T09:16:13;23.30;99.90
10411;DHT22;5251;52.112;8.606;2023-07-30T09:18:46;23.30;99.90
10411;DHT22;5251;52.112;8.606;2023-07-30T09:21:12;23.30;99.90
10411;DHT22;5251;52.112;8.606;2023-07-30T09:23:47;23.30;99.90
10411;DHT22;5251;52.112;8.606;2023-07-30T09:26:13;23.30;99.90
10411;DHT22;5251;52.112;8.606;2023-07-30T09:28:42;23.30;99.90
10411;DHT22;5251;52.112;8.606;2023-07-30T09:31:09;23.20;99.90
10411;DHT22;5251;52.112;8.606;2023-07-30T09:33:35;23.10;99.90
10411;DHT22;5251;52.112;8.606;2023-07-30T09:36:07;23.10;99.90
10411;DHT22;5251;52.112;8.606;2023-07-30T09:38:41;23.00;99.90
10411;DHT22;5251;52.112;8.606;2023-07-30T09:41:07;22.90;99.90
10411;DHT22;5251;52.112;8.606;2023-07-30T09:43:33;22.80;99.90
10411;DHT22;5251;52.112;8.606;2023-07-30T09:46:04;22.70;99.90
10411;DHT22;5251;52.112;8.606;2023-07-30T09:48:31;22.70;99.90
10411;DHT22;5251;52.112;8.606;2023-07-30T09:51:01;22.60;99.90
10411;DHT22;5251;52.112;8.606;2023-07-30T09:53:32;22.50;99.90
10411;DHT22;5251;52.112;8.606;2023-07-30T09:56:02;22.40;99.90
10411;DHT22;5251;52.112;8.606;2023-07-30T09:58:28;22.40;99.90
10411;DHT22;5251;52.112;8.606;2023-07-30T10:00:55;22.30;99.90
10411;DHT22;5251;52.112;8.606;2023-07-30T10:03:23;22.30;99.90
10411;DHT22;5251;52.112;8.606;2023-07-30T10:05:48;22.30;99.90
10411;DHT22;5251;52.112;8.606;2023-07-30T10:08:21;22.30;99.90
10411;DHT22;5251;52.112;8.606;2023-07-30T10:10:48;22.40;99.90
10411;DHT22;5251;52.112;8.606;2023-07-30T10:13:15;22.40;99.90
10411;DHT22;5251;52.112;8.606;2023-07-30T10:15:43;22.50;99.90
10411;DHT22;5251;52.112;8.606;2023-07-30T10:18:09;22.60;99.90
10411;DHT22;5251;52.112;8.606;2023-07-30T10:20:35;22.70;99.90
10411;DHT22;5251;52.112;8.606;2023-07-30T10:23:01;22.90;99.90
10411;DHT22;5251;52.112;8.606;2023-07-30T10:25:44;23.20;99.90
10411;DHT22;5251;52.112;8.606;2023-07-30T10:30:58;23.70;99.90
10411;DHT22;5251;52.112;8.606;2023-07-30T10:33:50;24.00;99.90
10411;DHT22;5251;52.112;8.606;2023-07-30T10:38:52;24.30;99.90
10411;DHT22;5251;52.112;8.606;2023-07-30T10:41:19;24.50;99.50
10411;DHT22;5251;52.112;8.606;2023-07-30T10:43:50;24.70;99.20
10411;DHT22;5251;52.112;8.606;2023-07-30T10:46:17;24.80;98.90
10411;DHT22;5251;52.112;8.606;2023-07-30T10:48:45;24.90;98.30
10411;DHT22;5251;52.112;8.606;2023-07-30T10:51:16;25.10;99.30
10411;DHT22;5251;52.112;8.606;2023-07-30T10:53:43;25.20;98.10
10411;DHT22;5251;52.112;8.606;2023-07-30T10:56:10;25.40;97.90
10411;DHT22;5251;52.112;8.606;2023-07-30T10:58:37;25.60;97.80
10411;DHT22;5251;52.112;8.606;2023-07-30T11:01:04;25.80;97.90
10411;DHT22;5251;52.112;8.606;2023-07-30T11:03:30;26.00;97.30
10411;DHT22;5251;52.112;8.606;2023-07-30T11:05:57;26.20;96.20
10411;DHT22;5251;52.112;8.606;2023-07-30T11:08:52;26.30;95.00
10411;DHT22;5251;52.112;8.606;2023-07-30T11:11:18;26.50;96.60
10411;DHT22;5251;52.112;8.606;2023-07-30T11:13:46;26.50;94.70
10411;DHT22;5251;52.112;8.606;2023-07-30T11:16:12;26.60;94.40
10411;DHT22;5251;52.112;8.606;2023-07-30T11:18:41;26.70;94.60
10411;DHT22;5251;52.112;8.606;2023-07-30T11:21:09;26.70;93.90
10411;DHT22;5251;52.112;8.606;2023-07-30T11:23:36;26.80;94.20
10411;DHT22;5251;52.112;8.606;2023-07-30T11:26:03;26.80;93.80
10411;DHT22;5251;52.112;8.606;2023-07-30T11:28:39;26.90;92.60
10411;DHT22;5251;52.112;8.606;2023-07-30T11:31:09;26.90;92.60
10411;DHT22;5251;52.112;8.606;2023-07-30T11:33:36;27.00;92.50
10411;DHT22;5251;52.112;8.606;2023-07-30T11:36:03;27.00;91.20
10411;DHT22;5251;52.112;8.606;2023-07-30T11:38:30;27.00;91.90
10411;DHT22;5251;52.112;8.606;2023-07-30T11:40:56;26.90;91.80
10411;DHT22;5251;52.112;8.606;2023-07-30T11:43:23;26.80;91.40
10411;DHT22;5251;52.112;8.606;2023-07-30T11:45:49;26.80;91.60
10411;DHT22;5251;52.112;8.606;2023-07-30T11:48:30;26.80;90.80
10411;DHT22;5251;52.112;8.606;2023-07-30T11:50:56;26.70;90.90
10411;DHT22;5251;52.112;8.606;2023-07-30T11:53:22;26.70;91.20
10411;DHT22;5251;52.112;8.606;2023-07-30T11:55:47;26.70;90.50
10411;DHT22;5251;52.112;8.606;2023-07-30T11:58:14;26.70;90.90
10411;DHT22;5251;52.112;8.606;2023-07-30T12:00:40;26.70;90.70
10411;DHT22;5251;52.112;8.606;2023-07-30T12:03:10;26.70;90.30
10411;DHT22;5251;52.112;8.606;2023-07-30T12:05:38;26.80;88.60
10411;DHT22;5251;52.112;8.606;2023-07-30T12:08:04;26.90;88.50
10411;DHT22;5251;52.112;8.606;2023-07-30T12:10:46;26.90;88.00
10411;DHT22;5251;52.112;8.606;2023-07-30T12:13:17;27.00;87.40
10411;DHT22;5251;52.112;8.606;2023-07-30T12:15:53;27.00;85.90
10411;DHT22;5251;52.112;8.606;2023-07-30T12:18:19;27.00;84.00
10411;DHT22;5251;52.112;8.606;2023-07-30T12:20:46;27.00;83.90
10411;DHT22;5251;52.112;8.606;2023-07-30T12:23:11;27.10;84.70
10411;DHT22;5251;52.112;8.606;2023-07-30T12:25:38;27.20;84.00
10411;DHT22;5251;52.112;8.606;2023-07-30T12:28:04;27.30;82.70
10411;DHT22;5251;52.112;8.606;2023-07-30T12:30:29;27.30;81.50
10411;DHT22;5251;52.112;8.606;2023-07-30T12:32:56;27.40;82.30
10411;DHT22;5251;52.112;8.606;2023-07-30T12:35:21;27.50;82.10
10411;DHT22;5251;52.112;8.606;2023-07-30T12:37:47;27.60;80.80
10411;DHT22;5251;52.112;8.606;2023-07-30T12:40:13;27.70;78.50
10411;DHT22;5251;52.112;8.606;2023-07-30T12:42:38;27.70;78.70
10411;DHT22;5251;52.112;8.606;2023-07-30T12:45:04;27.80;78.70
10411;DHT22;5251;52.112;8.606;2023-07-30T12:47:30;27.90;78.70
10411;DHT22;5251;52.112;8.606;2023-07-30T12:49:55;27.90;76.10
10411;DHT22;5251;52.112;8.606;2023-07-30T12:52:21;28.00;76.80
10411;DHT22;5251;52.112;8.606;2023-07-30T12:54:46;28.00;78.60
10411;DHT22;5251;52.112;8.606;2023-07-30T12:57:12;28.10;79.00
10411;DHT22;5251;52.112;8.606;2023-07-30T12:59:38;28.20;78.50
10411;DHT22;5251;52.112;8.606;2023-07-30T13:02:03;28.40;78.30
10411;DHT22;5251;52.112;8.606;2023-07-30T13:04:29;28.50;77.00
10411;DHT22;5251;52.112;8.606;2023-07-30T13:06:55;28.50;75.10
10411;DHT22;5251;52.112;8.606;2023-07-30T13:09:21;28.40;74.70
10411;DHT22;5251;52.112;8.606;2023-07-30T13:11:47;28.50;74.30
10411;DHT22;5251;52.112;8.606;2023-07-30T13:14:12;28.40;73.50
10411;DHT22;5251;52.112;8.606;2023-07-30T13:16:38;28.40;74.30
10411;DHT22;5251;52.112;8.606;2023-07-30T13:19:04;28.40;75.20
10411;DHT22;5251;52.112;8.606;2023-07-30T13:21:29;28.30;74.60
10411;DHT22;5251;52.112;8.606;2023-07-30T13:23:55;28.20;75.20
10411;DHT22;5251;52.112;8.606;2023-07-30T13:26:20;28.30;74.90
10411;DHT22;5251;52.112;8.606;2023-07-30T13:28:46;28.20;74.00
10411;DHT22;5251;52.112;8.606;2023-07-30T13:31:11;28.10;74.40
10411;DHT22;5251;52.112;8.606;2023-07-30T13:33:37;27.90;73.30
10411;DHT22;5251;52.112;8.606;2023-07-30T13:36:03;27.80;74.00
10411;DHT22;5251;52.112;8.606;2023-07-30T13:38:29;27.60;74.50
10411;DHT22;5251;52.112;8.606;2023-07-30T13:40:55;27.50;75.60
10411;DHT22;5251;52.112;8.606;2023-07-30T13:43:20;27.20;78.40
10411;DHT22;5251;52.112;8.606;2023-07-30T13:45:46;27.00;81.70
10411;DHT22;5251;52.112;8.606;2023-07-30T13:48:15;26.70;81.00
10411;DHT22;5251;52.112;8.606;2023-07-30T13:50:41;26.50;80.10
10411;DHT22;5251;52.112;8.606;2023-07-30T13:53:06;26.20;82.10
10411;DHT22;5251;52.112;8.606;2023-07-30T13:55:32;26.10;82.60
10411;DHT22;5251;52.112;8.606;2023-07-30T13:57:58;26.00;83.00
10411;DHT22;5251;52.112;8.606;2023-07-30T14:00:24;25.80;82.50
10411;DHT22;5251;52.112;8.606;2023-07-30T14:02:49;25.70;83.70
10411;DHT22;5251;52.112;8.606;2023-07-30T14:05:16;25.70;83.50
10411;DHT22;5251;52.112;8.606;2023-07-30T14:07:42;25.70;84.40
10411;DHT22;5251;52.112;8.606;2023-07-30T14:10:08;25.60;83.10
10411;DHT22;5251;52.112;8.606;2023-07-30T14:12:34;25.70;82.20
10411;DHT22;5251;52.112;8.606;2023-07-30T14:15:00;25.70;81.30
10411;DHT22;5251;52.112;8.606;2023-07-30T14:17:25;25.70;79.90
10411;DHT22;5251;52.112;8.606;2023-07-30T14:19:51;25.70;78.70
10411;DHT22;5251;52.112;8.606;2023-07-30T14:22:16;25.60;79.70
10411;DHT22;5251;52.112;8.606;2023-07-30T14:24:42;25.60;79.10
10411;DHT22;5251;52.112;8.606;2023-07-30T14:27:10;25.50;79.00
10411;DHT22;5251;52.112;8.606;2023-07-30T14:29:35;25.60;79.80
10411;DHT22;5251;52.112;8.606;2023-07-30T14:32:01;25.60;79.90
10411;DHT22;5251;52.112;8.606;2023-07-30T14:34:27;25.60;80.20
10411;DHT22;5251;52.112;8.606;2023-07-30T14:36:52;25.60;79.70
10411;DHT22;5251;52.112;8.606;2023-07-30T14:39:18;25.60;81.20
10411;DHT22;5251;52.112;8.606;2023-07-30T14:41:43;25.60;79.60
10411;DHT22;5251;52.112;8.606;2023-07-30T14:44:09;25.60;80.80
10411;DHT22;5251;52.112;8.606;2023-07-30T14:46:34;25.60;79.00
10411;DHT22;5251;52.112;8.606;2023-07-30T14:49:00;25.60;80.80
10411;DHT22;5251;52.112;8.606;2023-07-30T14:51:26;25.50;79.90
10411;DHT22;5251;52.112;8.606;2023-07-30T14:53:51;25.50;79.80
10411;DHT22;5251;52.112;8.606;2023-07-30T14:56:17;25.40;81.40
10411;DHT22;5251;52.112;8.606;2023-07-30T14:58:42;25.30;81.00
10411;DHT22;5251;52.112;8.606;2023-07-30T15:01:08;25.30;80.60
10411;DHT22;5251;52.112;8.606;2023-07-30T15:03:33;25.20;81.00
10411;DHT22;5251;52.112;8.606;2023-07-30T15:05:59;25.20;80.80
10411;DHT22;5251;52.112;8.606;2023-07-30T15:08:25;25.20;82.20
10411;DHT22;5251;52.112;8.606;2023-07-30T15:10:51;25.10;81.40
10411;DHT22;5251;52.112;8.606;2023-07-30T15:13:16;25.10;81.60
10411;DHT22;5251;52.112;8.606;2023-07-30T15:15:44;25.10;82.10
10411;DHT22;5251;52.112;8.606;2023-07-30T15:18:09;25.20;83.60
10411;DHT22;5251;52.112;8.606;2023-07-30T15:20:35;25.20;83.50
10411;DHT22;5251;52.112;8.606;2023-07-30T15:23:00;25.20;83.90
10411;DHT22;5251;52.112;8.606;2023-07-30T15:25:26;25.30;83.60
10411;DHT22;5251;52.112;8.606;2023-07-30T15:27:52;25.30;84.40
10411;DHT22;5251;52.112;8.606;2023-07-30T15:30:17;25.30;82.80
10411;DHT22;5251;52.112;8.606;2023-07-30T15:32:44;25.30;81.60
10411;DHT22;5251;52.112;8.606;2023-07-30T15:35:10;25.30;83.00
10411;DHT22;5251;52.112;8.606;2023-07-30T15:37:37;25.30;82.10
10411;DHT22;5251;52.112;8.606;2023-07-30T15:40:03;25.30;81.80
10411;DHT22;5251;52.112;8.606;2023-07-30T15:42:28;25.30;82.40
10411;DHT22;5251;52.112;8.606;2023-07-30T15:44:54;25.30;83.00